Time;durP1;ratioP1;P1;durP2;ratioP2;P2;SDS_P1;SDS_P2;PMS_P1;PMS_P2;Temp;Humidity;BMP_temperature;BMP_pressure;BME280_temperature;BME280_humidity;BME280_pressure;Samples;Min_cycle;Max_cycle;Signal;HPM_P1;HPM_P2
2021/10/28 00:13:14;;;;;;;;;;;12.40;99.90;;;;;;2066699;28;1367;-56
2021/10/28 00:14:33;;;;;;;;;;;12.40;99.90;;;;;;2065794;28;1724;-54
2021/10/28 00:15:57;;;;;;;;;;;12.40;99.90;;;;;;2072957;28;742;-57
2021/10/28 00:17:19;;;;;;;;;;;12.40;99.90;;;;;;2073172;28;680;-57
2021/10/28 00:18:49;;;;;;;;;;;12.30;99.90;;;;;;2073177;28;699;-58
2021/10/28 00:20:09;;;;;;;;;;;12.30;99.90;;;;;;2073044;28;1450;-58
2021/10/28 00:21:30;;;;;;;;;;;12.30;99.90;;;;;;2065587;28;1410;-55
2021/10/28 00:22:50;;;;;;;;;;;12.30;99.90;;;;;;2073172;28;701;-58
2021/10/28 00:24:11;;;;;;;;;;;12.30;99.90;;;;;;2073274;28;734;-57
2021/10/28 00:25:30;;;;;;;;;;;12.30;99.90;;;;;;2071972;28;1385;-56
2021/10/28 00:26:49;;;;;;;;;;;12.30;99.90;;;;;;2056284;28;1368;-58
2021/10/28 00:28:10;;;;;;;;;;;12.30;99.90;;;;;;2058859;28;1437;-57
2021/10/28 00:29:30;;;;;;;;;;;12.30;99.90;;;;;;2053665;28;783;-55
2021/10/28 00:30:49;;;;;;;;;;;12.20;99.90;;;;;;2061913;28;1704;-54
2021/10/28 00:32:10;;;;;;;;;;;12.20;99.90;;;;;;2064692;28;782;-57
2021/10/28 00:33:31;;;;;;;;;;;12.20;99.90;;;;;;2069672;28;696;-59
2021/10/28 00:34:50;;;;;;;;;;;12.20;99.90;;;;;;2072494;28;1911;-54
2021/10/28 00:36:09;;;;;;;;;;;12.20;99.90;;;;;;2072441;28;754;-60
2021/10/28 00:37:29;;;;;;;;;;;12.20;99.90;;;;;;2072865;28;955;-56
2021/10/28 00:38:48;;;;;;;;;;;12.10;99.90;;;;;;2063254;28;1472;-58
2021/10/28 00:40:08;;;;;;;;;;;12.20;99.90;;;;;;2069640;28;733;-55
2021/10/28 00:41:28;;;;;;;;;;;12.10;99.90;;;;;;2072365;28;716;-55
2021/10/28 00:42:47;;;;;;;;;;;12.20;99.90;;;;;;2070400;28;1411;-56
2021/10/28 00:44:07;;;;;;;;;;;12.10;99.90;;;;;;2064966;28;772;-55
2021/10/28 00:45:27;;;;;;;;;;;12.00;99.90;;;;;;2064989;28;1573;-56
2021/10/28 00:46:46;;;;;;;;;;;12.00;99.90;;;;;;2067625;28;1366;-55
2021/10/28 00:48:05;;;;;;;;;;;12.00;99.90;;;;;;2064725;28;636;-54
2021/10/28 00:49:25;;;;;;;;;;;12.00;99.90;;;;;;2072026;28;613;-55
2021/10/28 00:50:44;;;;;;;;;;;12.00;99.90;;;;;;2062811;28;1383;-56
2021/10/28 00:52:05;;;;;;;;;;;12.00;99.90;;;;;;2069421;28;603;-58
2021/10/28 00:53:25;;;;;;;;;;;12.00;99.90;;;;;;2072515;28;680;-54
2021/10/28 00:54:45;;;;;;;;;;;12.00;99.90;;;;;;2075420;28;1274;-57
2021/10/28 00:56:05;;;;;;;;;;;12.00;99.90;;;;;;2056701;28;1431;-59
2021/10/28 00:57:24;;;;;;;;;;;12.00;99.90;;;;;;2066300;28;634;-57
2021/10/28 00:58:43;;;;;;;;;;;11.90;99.90;;;;;;2073168;28;665;-55
2021/10/28 01:00:06;;;;;;;;;;;12.00;99.90;;;;;;2072913;28;606;-55
2021/10/28 01:01:25;;;;;;;;;;;11.90;99.90;;;;;;2069196;28;1547;-55
2021/10/28 01:02:44;;;;;;;;;;;11.90;99.90;;;;;;2074774;28;726;-56
2021/10/28 01:04:04;;;;;;;;;;;11.90;99.90;;;;;;2074560;28;717;-54
2021/10/28 01:05:23;;;;;;;;;;;11.90;99.90;;;;;;2067550;28;1280;-56
2021/10/28 01:06:42;;;;;;;;;;;11.90;99.90;;;;;;2066581;28;1523;-56
2021/10/28 01:08:02;;;;;;;;;;;11.90;99.90;;;;;;2065962;28;722;-54
2021/10/28 01:09:22;;;;;;;;;;;11.90;99.90;;;;;;2066393;28;695;-55
2021/10/28 01:10:51;;;;;;;;;;;11.90;99.90;;;;;;2066495;28;713;-57
2021/10/28 01:12:10;;;;;;;;;;;11.90;99.90;;;;;;2065856;28;771;-57
2021/10/28 01:13:29;;;;;;;;;;;11.90;99.90;;;;;;2073602;28;1471;-54
2021/10/28 01:14:48;;;;;;;;;;;11.90;99.90;;;;;;2063728;28;1899;-55
2021/10/28 01:16:08;;;;;;;;;;;11.90;99.90;;;;;;2073511;28;1547;-54
2021/10/28 01:17:29;;;;;;;;;;;11.90;99.90;;;;;;2082674;28;747;-55
2021/10/28 01:18:48;;;;;;;;;;;11.90;99.90;;;;;;2074023;28;794;-55
2021/10/28 01:20:08;;;;;;;;;;;11.90;99.90;;;;;;2078810;28;1460;-54
2021/10/28 01:21:28;;;;;;;;;;;11.80;99.90;;;;;;2060889;28;1710;-56
2021/10/28 01:22:48;;;;;;;;;;;11.80;99.90;;;;;;2063227;28;733;-57
2021/10/28 01:24:07;;;;;;;;;;;11.80;99.90;;;;;;2068084;28;762;-57
2021/10/28 01:25:27;;;;;;;;;;;11.80;99.90;;;;;;2078437;28;1613;-56
2021/10/28 01:26:46;;;;;;;;;;;11.80;99.90;;;;;;2065822;28;1318;-55
2021/10/28 01:28:13;;;;;;;;;;;11.80;99.90;;;;;;2078707;28;1104;-60
2021/10/28 01:29:32;;;;;;;;;;;11.80;99.90;;;;;;2074518;28;774;-58
2021/10/28 01:30:52;;;;;;;;;;;11.80;99.90;;;;;;2067955;28;1412;-57
2021/10/28 01:32:12;;;;;;;;;;;11.80;99.90;;;;;;2065977;28;785;-56
2021/10/28 01:33:31;;;;;;;;;;;11.80;99.90;;;;;;2066054;28;767;-59
2021/10/28 01:34:50;;;;;;;;;;;11.80;99.90;;;;;;2067069;28;1934;-57
2021/10/28 01:36:10;;;;;;;;;;;11.80;99.90;;;;;;2068405;28;1340;-57
2021/10/28 01:37:29;;;;;;;;;;;11.80;99.90;;;;;;2066406;28;954;-59
2021/10/28 01:38:49;;;;;;;;;;;11.70;99.90;;;;;;2066102;28;754;-56
2021/10/28 01:40:10;;;;;;;;;;;11.70;99.90;;;;;;2073307;28;1651;-57
2021/10/28 01:41:29;;;;;;;;;;;11.70;99.90;;;;;;2057701;28;837;-55
2021/10/28 01:42:49;;;;;;;;;;;11.70;99.90;;;;;;2054662;28;1924;-57
2021/10/28 01:44:08;;;;;;;;;;;11.70;99.90;;;;;;2054528;28;730;-58
2021/10/28 01:45:27;;;;;;;;;;;11.70;99.90;;;;;;2069149;28;1959;-58
2021/10/28 01:46:47;;;;;;;;;;;11.70;99.90;;;;;;2073799;28;1404;-59
2021/10/28 01:48:06;;;;;;;;;;;11.70;99.90;;;;;;2073921;28;725;-59
2021/10/28 01:49:26;;;;;;;;;;;11.70;99.90;;;;;;2065925;28;1646;-57
2021/10/28 01:50:45;;;;;;;;;;;11.60;99.90;;;;;;2067343;28;1617;-56
2021/10/28 01:52:05;;;;;;;;;;;11.70;99.90;;;;;;2070701;28;1027;-56
2021/10/28 01:53:24;;;;;;;;;;;11.70;99.90;;;;;;2077639;28;1137;-57
2021/10/28 01:54:44;;;;;;;;;;;11.60;99.90;;;;;;2069764;28;1559;-57
2021/10/28 01:56:04;;;;;;;;;;;11.60;99.90;;;;;;2070962;28;1310;-58
2021/10/28 01:57:23;;;;;;;;;;;11.60;99.90;;;;;;2077732;28;1222;-59
2021/10/28 01:58:42;;;;;;;;;;;11.60;99.90;;;;;;2074268;28;727;-57
2021/10/28 02:00:03;;;;;;;;;;;11.60;99.90;;;;;;2074138;28;1605;-56
2021/10/28 02:01:30;;;;;;;;;;;11.60;99.90;;;;;;2070055;28;1527;-58
2021/10/28 02:02:50;;;;;;;;;;;11.60;99.90;;;;;;2066097;28;723;-57
2021/10/28 02:04:09;;;;;;;;;;;11.50;99.90;;;;;;2066557;28;1643;-58
2021/10/28 02:05:29;;;;;;;;;;;11.50;99.90;;;;;;2073059;28;1300;-59
2021/10/28 02:06:48;;;;;;;;;;;11.50;99.90;;;;;;2073468;28;1332;-59
2021/10/28 02:08:07;;;;;;;;;;;11.50;99.90;;;;;;2072219;28;1365;-56
2021/10/28 02:09:26;;;;;;;;;;;11.50;99.90;;;;;;2070892;28;1213;-58
2021/10/28 02:10:46;;;;;;;;;;;11.50;99.90;;;;;;2074073;28;1064;-57
2021/10/28 02:12:06;;;;;;;;;;;11.50;99.90;;;;;;2065243;28;862;-58
2021/10/28 02:13:25;;;;;;;;;;;11.50;99.90;;;;;;2067562;28;1498;-57
2021/10/28 02:14:44;;;;;;;;;;;11.50;99.90;;;;;;2067330;28;1337;-60
2021/10/28 02:16:04;;;;;;;;;;;11.40;99.90;;;;;;2071087;28;1730;-60
2021/10/28 02:17:23;;;;;;;;;;;11.40;99.90;;;;;;2065611;28;1447;-59
2021/10/28 02:18:42;;;;;;;;;;;11.40;99.90;;;;;;2073699;28;1475;-58
2021/10/28 02:20:02;;;;;;;;;;;11.40;99.90;;;;;;2065534;28;718;-56
2021/10/28 02:21:20;;;;;;;;;;;11.40;99.90;;;;;;2072601;28;1282;-59
2021/10/28 02:22:40;;;;;;;;;;;11.40;99.90;;;;;;2073845;28;2104;-56
2021/10/28 02:23:59;;;;;;;;;;;11.40;99.90;;;;;;2073411;28;1453;-58
2021/10/28 02:25:18;;;;;;;;;;;11.40;99.90;;;;;;2077777;28;1610;-60
2021/10/28 02:26:47;;;;;;;;;;;11.40;99.90;;;;;;2073683;28;1403;-59
2021/10/28 02:28:06;;;;;;;;;;;11.30;99.90;;;;;;2074063;28;752;-54
2021/10/28 02:29:26;;;;;;;;;;;11.30;99.90;;;;;;2056066;28;756;-61
2021/10/28 02:30:45;;;;;;;;;;;11.40;99.90;;;;;;2058984;28;755;-58
2021/10/28 02:32:04;;;;;;;;;;;11.40;99.90;;;;;;2070648;28;970;-57
2021/10/28 02:33:23;;;;;;;;;;;11.30;99.90;;;;;;2073916;28;702;-58
2021/10/28 02:34:42;;;;;;;;;;;11.30;99.90;;;;;;2064709;28;1724;-59
2021/10/28 02:36:02;;;;;;;;;;;11.30;99.90;;;;;;2070119;28;859;-54
2021/10/28 02:37:22;;;;;;;;;;;11.30;99.90;;;;;;2073874;28;1094;-59
2021/10/28 02:38:42;;;;;;;;;;;11.30;99.90;;;;;;2071836;28;1133;-57
2021/10/28 02:40:00;;;;;;;;;;;11.30;99.90;;;;;;2075817;28;1325;-56
2021/10/28 02:41:20;;;;;;;;;;;11.30;99.90;;;;;;2075564;28;1244;-58
2021/10/28 02:42:39;;;;;;;;;;;11.30;99.90;;;;;;2074965;28;1257;-58
2021/10/28 02:43:58;;;;;;;;;;;11.20;99.90;;;;;;2076134;28;1583;-57
2021/10/28 02:45:17;;;;;;;;;;;11.20;99.90;;;;;;2073711;28;1362;-57
2021/10/28 02:46:39;;;;;;;;;;;11.20;99.90;;;;;;2069728;28;1521;-59
2021/10/28 02:47:58;;;;;;;;;;;11.20;99.90;;;;;;2069948;28;1139;-57
2021/10/28 02:49:17;;;;;;;;;;;11.20;99.90;;;;;;2069291;28;1262;-58
2021/10/28 02:50:36;;;;;;;;;;;11.20;99.90;;;;;;2065026;28;1247;-55
2021/10/28 02:51:56;;;;;;;;;;;11.20;99.90;;;;;;2073944;28;1172;-58
2021/10/28 02:53:15;;;;;;;;;;;11.20;99.90;;;;;;2077701;28;1448;-58
2021/10/28 02:54:34;;;;;;;;;;;11.10;99.90;;;;;;2076498;28;1134;-57
2021/10/28 02:55:53;;;;;;;;;;;11.10;99.90;;;;;;2076498;28;1206;-57
2021/10/28 02:57:12;;;;;;;;;;;11.10;99.90;;;;;;2063593;28;1373;-58
2021/10/28 02:58:32;;;;;;;;;;;11.10;99.90;;;;;;2075655;28;1228;-55
2021/10/28 02:59:51;;;;;;;;;;;11.10;99.90;;;;;;2078644;28;1275;-60
2021/10/28 03:01:10;;;;;;;;;;;11.10;99.90;;;;;;2074280;28;1343;-58
2021/10/28 03:02:29;;;;;;;;;;;11.10;99.90;;;;;;2073977;28;1361;-58
2021/10/28 03:03:48;;;;;;;;;;;11.10;99.90;;;;;;2073423;28;1236;-57
2021/10/28 03:05:08;;;;;;;;;;;11.10;99.90;;;;;;2067222;28;1321;-57
2021/10/28 03:06:27;;;;;;;;;;;11.00;99.90;;;;;;2059481;28;1539;-58
2021/10/28 03:07:46;;;;;;;;;;;11.00;99.90;;;;;;2073864;28;1199;-59
2021/10/28 03:09:10;;;;;;;;;;;11.00;99.90;;;;;;2075713;28;1274;-58
2021/10/28 03:10:29;;;;;;;;;;;11.00;99.90;;;;;;2061532;28;1452;-57
2021/10/28 03:11:50;;;;;;;;;;;11.00;99.90;;;;;;2069766;28;1214;-58
2021/10/28 03:13:09;;;;;;;;;;;11.00;99.90;;;;;;2073447;28;1163;-59
2021/10/28 03:15:14;;;;;;;;;;;10.90;99.90;;;;;;2066998;28;1133;-56
2021/10/28 03:16:17;;;;;;;;;;;11.00;99.90;;;;;;2069396;28;1660;-59
2021/10/28 03:25:38;;;;;;;;;;;10.90;99.90;;;;;;2073709;28;1128;-58
2021/10/28 03:26:58;;;;;;;;;;;10.90;99.90;;;;;;2073650;28;1514;-57
2021/10/28 03:28:17;;;;;;;;;;;10.90;99.90;;;;;;2072245;28;1336;-57
2021/10/28 03:29:36;;;;;;;;;;;10.90;99.90;;;;;;2064457;28;1087;-56
2021/10/28 03:30:55;;;;;;;;;;;10.80;99.90;;;;;;2053815;28;1357;-54
2021/10/28 03:32:15;;;;;;;;;;;10.80;99.90;;;;;;2065129;28;1455;-56
2021/10/28 03:33:37;;;;;;;;;;;10.80;99.90;;;;;;2079781;28;981;-57
2021/10/28 03:34:56;;;;;;;;;;;10.80;99.90;;;;;;2073458;28;1902;-59
2021/10/28 03:36:27;;;;;;;;;;;10.80;99.90;;;;;;2064905;28;767;-55
2021/10/28 03:40:56;;;;;;;;;;;10.70;99.90;;;;;;2073359;28;726;-57
2021/10/28 03:47:17;;;;;;;;;;;10.70;99.90;;;;;;2072827;28;1402;-56
2021/10/28 03:49:03;;;;;;;;;;;10.70;99.90;;;;;;2073382;28;675;-55
2021/10/28 03:51:00;;;;;;;;;;;10.70;99.90;;;;;;2072971;28;1606;-57
2021/10/28 04:03:56;;;;;;;;;;;10.70;99.90;;;;;;2063856;28;1028;-57
2021/10/28 04:18:17;;;;;;;;;;;10.50;99.90;;;;;;2080591;28;723;-57
2021/10/28 04:29:08;;;;;;;;;;;10.50;99.90;;;;;;2078662;28;847;-57
2021/10/28 04:30:27;;;;;;;;;;;10.40;99.90;;;;;;2081378;28;719;-56
2021/10/28 04:31:46;;;;;;;;;;;10.40;99.90;;;;;;2072298;28;728;-57
2021/10/28 04:33:06;;;;;;;;;;;10.40;99.90;;;;;;2072781;28;970;-57
2021/10/28 04:34:25;;;;;;;;;;;10.40;99.70;;;;;;2077547;28;709;-58
2021/10/28 04:35:44;;;;;;;;;;;10.40;99.80;;;;;;2080860;28;1965;-58
2021/10/28 04:37:03;;;;;;;;;;;10.40;99.90;;;;;;2073986;28;1331;-56
2021/10/28 04:38:23;;;;;;;;;;;10.40;99.90;;;;;;2079294;28;730;-58
2021/10/28 04:39:42;;;;;;;;;;;10.40;99.90;;;;;;2074169;28;720;-54
2021/10/28 04:41:01;;;;;;;;;;;10.40;99.80;;;;;;2079534;28;701;-58
2021/10/28 04:42:21;;;;;;;;;;;10.40;99.90;;;;;;2074144;28;740;-57
2021/10/28 04:43:40;;;;;;;;;;;10.30;99.90;;;;;;2079267;28;765;-56
2021/10/28 04:44:59;;;;;;;;;;;10.30;99.90;;;;;;2083009;28;700;-60
2021/10/28 04:46:18;;;;;;;;;;;10.30;99.90;;;;;;2082008;28;1346;-59
2021/10/28 04:47:37;;;;;;;;;;;10.30;99.90;;;;;;2082805;28;715;-57
2021/10/28 04:48:56;;;;;;;;;;;10.30;99.90;;;;;;2082986;28;694;-58
2021/10/28 04:50:15;;;;;;;;;;;10.30;99.90;;;;;;2082841;28;704;-58
2021/10/28 04:51:35;;;;;;;;;;;10.30;99.90;;;;;;2074150;28;687;-58
2021/10/28 04:52:54;;;;;;;;;;;10.20;99.60;;;;;;2079559;28;744;-59
2021/10/28 04:54:13;;;;;;;;;;;10.30;99.40;;;;;;2074192;28;722;-57
2021/10/28 04:55:32;;;;;;;;;;;10.30;99.40;;;;;;2073460;28;1895;-56
2021/10/28 04:56:51;;;;;;;;;;;10.30;99.60;;;;;;2074931;28;1463;-58
2021/10/28 04:58:10;;;;;;;;;;;10.20;99.60;;;;;;2082855;28;771;-57
2021/10/28 04:59:30;;;;;;;;;;;10.20;99.40;;;;;;2081515;28;1398;-55
2021/10/28 05:00:49;;;;;;;;;;;10.20;99.50;;;;;;2082896;28;740;-58
2021/10/28 05:02:09;;;;;;;;;;;10.20;99.50;;;;;;2082691;28;711;-59
2021/10/28 05:03:28;;;;;;;;;;;10.20;99.30;;;;;;2074011;28;718;-60
2021/10/28 05:04:47;;;;;;;;;;;10.20;99.10;;;;;;2079349;28;764;-57
2021/10/28 05:06:07;;;;;;;;;;;10.20;99.40;;;;;;2082256;28;735;-59
2021/10/28 05:07:26;;;;;;;;;;;10.20;99.60;;;;;;2082877;28;731;-56
2021/10/28 05:08:45;;;;;;;;;;;10.20;99.70;;;;;;2082705;28;789;-57
2021/10/28 05:10:04;;;;;;;;;;;10.20;99.60;;;;;;2074316;28;725;-55
2021/10/28 05:11:25;;;;;;;;;;;10.20;99.60;;;;;;2079366;28;746;-58
2021/10/28 05:12:44;;;;;;;;;;;10.20;99.10;;;;;;2082730;28;815;-58
2021/10/28 05:14:03;;;;;;;;;;;10.10;99.10;;;;;;2082786;28;708;-58
2021/10/28 05:15:23;;;;;;;;;;;10.10;99.30;;;;;;2082568;28;1894;-58
2021/10/28 05:16:42;;;;;;;;;;;10.10;99.60;;;;;;2073429;28;1462;-58
2021/10/28 05:18:01;;;;;;;;;;;10.10;99.90;;;;;;2079239;28;779;-57
2021/10/28 05:19:21;;;;;;;;;;;10.10;99.90;;;;;;2082567;28;753;-56
2021/10/28 05:20:40;;;;;;;;;;;10.10;99.90;;;;;;2074003;28;726;-58
2021/10/28 05:21:59;;;;;;;;;;;10.10;99.90;;;;;;2078961;28;727;-58
2021/10/28 05:23:19;;;;;;;;;;;10.10;99.90;;;;;;2073796;28;795;-57
2021/10/28 05:24:38;;;;;;;;;;;10.10;99.50;;;;;;2068925;28;1473;-56
2021/10/28 05:25:57;;;;;;;;;;;10.10;99.20;;;;;;2074992;28;918;-57
2021/10/28 05:27:16;;;;;;;;;;;10.00;99.50;;;;;;2078305;28;1388;-58
2021/10/28 05:28:35;;;;;;;;;;;10.00;99.70;;;;;;2074415;28;761;-55
2021/10/28 05:29:54;;;;;;;;;;;10.10;99.00;;;;;;2073269;28;688;-56
2021/10/28 05:31:14;;;;;;;;;;;10.00;99.00;;;;;;2074411;28;791;-57
2021/10/28 05:32:33;;;;;;;;;;;10.00;99.40;;;;;;2074551;28;916;-54
2021/10/28 05:33:53;;;;;;;;;;;10.00;99.60;;;;;;2074371;28;778;-58
2021/10/28 05:35:12;;;;;;;;;;;10.00;99.40;;;;;;2074409;28;1914;-57
2021/10/28 05:36:31;;;;;;;;;;;10.00;99.30;;;;;;2065058;28;1447;-58
2021/10/28 05:37:51;;;;;;;;;;;10.00;99.10;;;;;;2065656;28;869;-56
2021/10/28 05:39:10;;;;;;;;;;;10.00;99.10;;;;;;2070887;28;723;-55
2021/10/28 05:40:29;;;;;;;;;;;10.00;99.20;;;;;;2074458;28;962;-58
2021/10/28 05:41:48;;;;;;;;;;;10.00;99.00;;;;;;2071150;28;1716;-57
2021/10/28 05:43:09;;;;;;;;;;;10.00;99.00;;;;;;2065902;28;723;-57
2021/10/28 05:44:28;;;;;;;;;;;9.90;99.60;;;;;;2070923;28;770;-57
2021/10/28 05:45:49;;;;;;;;;;;9.90;99.80;;;;;;2065640;28;789;-56
2021/10/28 05:47:08;;;;;;;;;;;9.90;99.20;;;;;;2064531;28;1381;-57
2021/10/28 05:48:28;;;;;;;;;;;9.90;99.50;;;;;;2071037;28;698;-57
2021/10/28 05:49:47;;;;;;;;;;;9.90;99.30;;;;;;2073852;28;859;-57
2021/10/28 05:51:06;;;;;;;;;;;9.90;99.30;;;;;;2074199;28;706;-60
2021/10/28 05:52:25;;;;;;;;;;;9.90;99.10;;;;;;2074234;28;725;-57
2021/10/28 05:53:46;;;;;;;;;;;9.90;99.20;;;;;;2074361;28;766;-58
2021/10/28 05:55:06;;;;;;;;;;;9.80;99.90;;;;;;2070503;28;1986;-57
2021/10/28 05:56:25;;;;;;;;;;;9.90;99.90;;;;;;2065087;28;1298;-56
2021/10/28 05:57:44;;;;;;;;;;;9.90;99.90;;;;;;2070725;28;1070;-59
2021/10/28 05:59:03;;;;;;;;;;;9.90;99.90;;;;;;2074059;28;705;-58
2021/10/28 06:00:23;;;;;;;;;;;9.80;99.90;;;;;;2074292;28;720;-58
2021/10/28 06:01:42;;;;;;;;;;;9.80;99.70;;;;;;2074199;28;714;-56
2021/10/28 06:03:02;;;;;;;;;;;9.80;99.90;;;;;;2074165;28;1035;-59
2021/10/28 06:04:21;;;;;;;;;;;9.80;99.50;;;;;;2074030;28;713;-58
2021/10/28 06:05:40;;;;;;;;;;;9.80;99.40;;;;;;2065495;28;704;-56
2021/10/28 06:07:00;;;;;;;;;;;9.80;99.70;;;;;;2061827;28;1419;-58
2021/10/28 06:08:19;;;;;;;;;;;9.80;99.90;;;;;;2062354;28;738;-56
2021/10/28 06:09:38;;;;;;;;;;;9.80;99.90;;;;;;2070723;28;768;-54
2021/10/28 06:10:58;;;;;;;;;;;9.80;99.90;;;;;;2074087;28;809;-58
2021/10/28 06:12:17;;;;;;;;;;;9.80;99.90;;;;;;2073867;28;715;-60
2021/10/28 06:13:43;;;;;;;;;;;9.80;99.90;;;;;;2074268;28;722;-58
2021/10/28 06:15:03;;;;;;;;;;;9.80;99.90;;;;;;2065107;28;1907;-58
2021/10/28 06:16:24;;;;;;;;;;;9.80;99.90;;;;;;2064913;28;1352;-59
2021/10/28 06:17:51;;;;;;;;;;;9.70;99.90;;;;;;2070988;28;764;-58
2021/10/28 06:19:10;;;;;;;;;;;9.70;99.90;;;;;;2074139;28;725;-57
2021/10/28 06:20:29;;;;;;;;;;;9.80;99.70;;;;;;2073780;28;728;-59
2021/10/28 06:21:49;;;;;;;;;;;9.80;99.50;;;;;;2074300;28;726;-55
2021/10/28 06:23:08;;;;;;;;;;;9.70;99.70;;;;;;2073806;28;715;-57
2021/10/28 06:24:27;;;;;;;;;;;9.70;99.80;;;;;;2077825;28;721;-58
2021/10/28 06:25:46;;;;;;;;;;;9.70;99.90;;;;;;2082154;28;980;-57
2021/10/28 06:27:05;;;;;;;;;;;9.80;99.90;;;;;;2076424;28;1330;-56
2021/10/28 06:28:25;;;;;;;;;;;9.70;99.90;;;;;;2082272;28;736;-58
2021/10/28 06:29:44;;;;;;;;;;;9.70;99.90;;;;;;2080953;28;710;-58
2021/10/28 06:31:03;;;;;;;;;;;9.70;99.90;;;;;;2082043;28;690;-59
2021/10/28 06:32:22;;;;;;;;;;;9.70;99.90;;;;;;2081961;28;771;-58
2021/10/28 06:33:48;;;;;;;;;;;9.70;99.90;;;;;;2082053;28;773;-59
2021/10/28 06:35:07;;;;;;;;;;;9.70;99.90;;;;;;2082355;28;1911;-59
2021/10/28 06:36:27;;;;;;;;;;;9.70;99.90;;;;;;2081066;28;1369;-58
2021/10/28 06:37:48;;;;;;;;;;;9.70;99.90;;;;;;2081867;28;864;-56
2021/10/28 06:39:07;;;;;;;;;;;9.70;99.90;;;;;;2082133;28;692;-57
2021/10/28 06:40:26;;;;;;;;;;;9.70;99.90;;;;;;2082215;28;697;-56
2021/10/28 06:41:45;;;;;;;;;;;9.70;99.90;;;;;;2081972;28;713;-56
2021/10/28 06:43:06;;;;;;;;;;;9.60;99.90;;;;;;2082039;28;712;-57
2021/10/28 06:44:25;;;;;;;;;;;9.60;99.90;;;;;;2081982;28;700;-58
2021/10/28 06:45:45;;;;;;;;;;;9.70;99.90;;;;;;2073150;28;751;-59
2021/10/28 06:47:05;;;;;;;;;;;9.60;99.90;;;;;;2069910;28;1330;-58
2021/10/28 06:48:25;;;;;;;;;;;9.70;99.90;;;;;;2078385;28;833;-57
2021/10/28 06:49:44;;;;;;;;;;;9.70;99.90;;;;;;2081362;28;1389;-57
2021/10/28 06:51:04;;;;;;;;;;;9.70;99.90;;;;;;2073296;28;1028;-58
2021/10/28 06:52:23;;;;;;;;;;;9.70;99.90;;;;;;2078665;28;731;-58
2021/10/28 06:53:53;;;;;;;;;;;9.60;99.90;;;;;;2082022;28;786;-58
2021/10/28 06:55:14;;;;;;;;;;;9.60;99.90;;;;;;2072579;28;1966;-58
2021/10/28 07:02:50;;;;;;;;;;;9.70;99.90;;;;;;2073691;28;666;-58
2021/10/28 07:04:09;;;;;;;;;;;9.60;99.90;;;;;;2073549;28;769;-59
2021/10/28 07:05:28;;;;;;;;;;;9.70;99.90;;;;;;2073446;28;1034;-59
2021/10/28 07:06:47;;;;;;;;;;;9.60;99.90;;;;;;2073270;28;1436;-59
2021/10/28 07:08:06;;;;;;;;;;;9.70;99.90;;;;;;2073716;28;665;-59
2021/10/28 07:09:56;;;;;;;;;;;9.70;99.90;;;;;;2073440;28;642;-59
2021/10/28 07:11:16;;;;;;;;;;;9.70;99.90;;;;;;2064973;28;778;-57
2021/10/28 07:13:03;;;;;;;;;;;9.70;99.90;;;;;;2073779;28;709;-58
2021/10/28 07:14:22;;;;;;;;;;;9.70;99.90;;;;;;2065108;28;876;-57
2021/10/28 07:15:52;;;;;;;;;;;9.70;99.90;;;;;;2070088;28;1898;-56
2021/10/28 07:27:54;;;;;;;;;;;9.80;99.90;;;;;;2075184;28;1079;-56
2021/10/28 07:58:04;;;;;;;;;;;10.40;99.90;;;;;;2065454;28;712;-57
2021/10/28 08:16:01;;;;;;;;;;;10.90;99.90;;;;;;2073252;28;1979;-57
2021/10/28 08:20:41;;;;;;;;;;;11.10;99.90;;;;;;2073295;28;730;-59
2021/10/28 08:22:04;;;;;;;;;;;11.10;99.90;;;;;;2073380;28;750;-56
2021/10/28 08:29:37;;;;;;;;;;;11.30;99.90;;;;;;2072036;28;737;-56
2021/10/28 08:30:57;;;;;;;;;;;11.40;99.90;;;;;;2073238;28;694;-60
2021/10/28 08:32:16;;;;;;;;;;;11.40;99.90;;;;;;2073037;28;688;-53
2021/10/28 08:33:35;;;;;;;;;;;11.50;99.90;;;;;;2073107;28;722;-59
2021/10/28 08:34:57;;;;;;;;;;;11.50;99.90;;;;;;2064472;28;721;-61
2021/10/28 08:36:24;;;;;;;;;;;11.60;99.90;;;;;;2069636;28;730;-58
2021/10/28 08:39:07;;;;;;;;;;;11.60;99.90;;;;;;2071237;28;717;-58
2021/10/28 08:40:27;;;;;;;;;;;11.70;99.90;;;;;;2064627;28;768;-59
2021/10/28 08:41:46;;;;;;;;;;;11.70;99.90;;;;;;2069890;28;773;-56
2021/10/28 08:43:05;;;;;;;;;;;11.70;99.90;;;;;;2064491;28;807;-59
2021/10/28 08:44:24;;;;;;;;;;;11.70;99.90;;;;;;2061273;28;759;-59
2021/10/28 08:45:43;;;;;;;;;;;11.70;99.90;;;;;;2061012;28;706;-58
2021/10/28 08:47:03;;;;;;;;;;;11.80;99.90;;;;;;2068269;28;1441;-58
2021/10/28 08:48:24;;;;;;;;;;;11.80;99.90;;;;;;2064227;28;719;-59
2021/10/28 08:49:58;;;;;;;;;;;11.80;99.90;;;;;;2064015;28;1215;-58
2021/10/28 08:51:55;;;;;;;;;;;11.80;99.90;;;;;;2071882;28;844;-59
2021/10/28 08:53:16;;;;;;;;;;;11.80;99.90;;;;;;2064570;28;705;-59
2021/10/28 08:56:10;;;;;;;;;;;11.90;99.90;;;;;;2074395;28;1960;-60
2021/10/28 09:25:10;;;;;;;;;;;12.40;99.90;;;;;;2066777;28;748;-58
2021/10/28 09:29:33;;;;;;;;;;;12.40;99.90;;;;;;2073722;28;715;-58
2021/10/28 09:30:58;;;;;;;;;;;12.50;99.90;;;;;;2065940;28;955;-59
2021/10/28 09:44:33;;;;;;;;;;;12.60;99.90;;;;;;2072871;28;884;-56
2021/10/28 09:45:58;;;;;;;;;;;12.60;99.90;;;;;;2065800;28;786;-56
2021/10/28 09:47:34;;;;;;;;;;;12.60;99.90;;;;;;2071027;28;1350;-58
2021/10/28 09:50:24;;;;;;;;;;;12.60;99.90;;;;;;2073836;28;784;-58
2021/10/28 09:52:33;;;;;;;;;;;12.70;99.90;;;;;;2074235;28;745;-58
2021/10/28 09:53:42;;;;;;;;;;;12.70;99.90;;;;;;2073886;28;1469;-55
2021/10/28 09:58:44;;;;;;;;;;;12.80;99.90;;;;;;2033321;29;839;-56
2021/10/28 10:00:03;;;;;;;;;;;12.80;99.90;;;;;;2073691;28;745;-60
2021/10/28 10:01:32;;;;;;;;;;;12.80;99.90;;;;;;2074323;28;780;-58
2021/10/28 10:02:55;;;;;;;;;;;12.80;99.90;;;;;;2073921;28;756;-59
2021/10/28 10:04:15;;;;;;;;;;;12.80;99.90;;;;;;2074513;28;804;-58
2021/10/28 10:05:34;;;;;;;;;;;12.80;99.90;;;;;;2065693;28;751;-57
2021/10/28 10:06:53;;;;;;;;;;;12.80;99.90;;;;;;2062362;28;1445;-59
2021/10/28 10:08:13;;;;;;;;;;;12.90;99.90;;;;;;2070763;28;700;-57
2021/10/28 10:09:36;;;;;;;;;;;12.90;99.90;;;;;;2074362;28;711;-55
2021/10/28 10:10:56;;;;;;;;;;;13.00;99.90;;;;;;2065624;28;782;-57
2021/10/28 10:12:15;;;;;;;;;;;13.00;99.90;;;;;;2062486;28;706;-58
2021/10/28 10:13:34;;;;;;;;;;;13.00;99.90;;;;;;2070661;28;714;-56
2021/10/28 10:14:54;;;;;;;;;;;13.00;99.90;;;;;;2074105;28;729;-58
2021/10/28 10:16:14;;;;;;;;;;;13.00;99.90;;;;;;2073888;28;730;-58
2021/10/28 10:17:34;;;;;;;;;;;13.10;99.90;;;;;;2074043;28;712;-59
2021/10/28 10:18:53;;;;;;;;;;;13.10;99.90;;;;;;2065525;28;715;-57
2021/10/28 10:20:13;;;;;;;;;;;13.10;99.90;;;;;;2070774;28;747;-58
2021/10/28 10:21:38;;;;;;;;;;;13.10;99.90;;;;;;2065406;28;751;-58
2021/10/28 11:05:24;;;;;;;;;;;13.50;99.80;;;;;;2073123;28;711;-57
2021/10/28 11:06:45;;;;;;;;;;;13.50;99.70;;;;;;2079975;28;1105;-59
2021/10/28 11:27:34;;;;;;;;;;;13.70;98.00;;;;;;2081303;28;1325;-59
2021/10/28 12:01:26;;;;;;;;;;;13.80;96.70;;;;;;2072788;28;705;-58
2021/10/28 12:14:25;;;;;;;;;;;14.10;87.50;;;;;;2081402;28;1356;-57
2021/10/28 12:21:45;;;;;;;;;;;14.20;84.70;;;;;;2072523;28;749;-60
2021/10/28 12:44:34;;;;;;;;;;;13.40;94.40;;;;;;2064088;28;715;-62
2021/10/28 12:46:10;;;;;;;;;;;13.40;94.60;;;;;;2063663;28;724;-63
2021/10/28 12:47:38;;;;;;;;;;;13.40;94.90;;;;;;2055768;28;750;-63
2021/10/28 13:02:14;;;;;;;;;;;13.30;99.40;;;;;;2081214;28;1180;-63
2021/10/28 13:49:07;;;;;;;;;;;14.20;93.30;;;;;;2081852;28;813;-62
2021/10/28 13:50:38;;;;;;;;;;;14.20;92.40;;;;;;2081737;28;805;-62
2021/10/28 13:53:45;;;;;;;;;;;14.20;91.50;;;;;;2082080;28;807;-62
2021/10/28 13:58:30;;;;;;;;;;;14.30;90.70;;;;;;2073663;28;782;-62
2021/10/28 15:01:58;;;;;;;;;;;14.10;95.80;;;;;;2064354;28;739;-61
2021/10/28 15:31:12;;;;;;;;;;;14.00;96.60;;;;;;2040569;28;1414;-62
2021/10/28 15:35:15;;;;;;;;;;;14.00;96.40;;;;;;2046997;29;1681;-62
2021/10/28 15:36:25;;;;;;;;;;;13.90;96.80;;;;;;2044871;29;2001;-61
2021/10/28 15:40:05;;;;;;;;;;;14.00;97.30;;;;;;2045749;29;1261;-61
2021/10/28 15:41:42;;;;;;;;;;;14.00;97.60;;;;;;2061063;28;1247;-60
2021/10/28 15:47:13;;;;;;;;;;;14.00;97.70;;;;;;2072269;28;729;-60
2021/10/28 15:53:06;;;;;;;;;;;13.80;99.10;;;;;;2071167;28;734;-60
2021/10/28 16:22:56;;;;;;;;;;;15.40;93.00;;;;;;2063957;28;1658;-60
2021/10/28 16:24:15;;;;;;;;;;;15.50;92.40;;;;;;2070449;28;1408;-62
2021/10/28 16:25:34;;;;;;;;;;;15.60;92.30;;;;;;2066233;28;1391;-60
2021/10/28 16:26:54;;;;;;;;;;;15.70;91.70;;;;;;2073934;28;1410;-62
2021/10/28 16:28:16;;;;;;;;;;;15.80;91.10;;;;;;2072448;28;1101;-62
2021/10/28 16:29:36;;;;;;;;;;;15.90;90.60;;;;;;2064194;28;755;-63
2021/10/28 16:30:55;;;;;;;;;;;16.00;90.20;;;;;;2056024;28;726;-62
2021/10/28 16:32:15;;;;;;;;;;;16.10;89.90;;;;;;2074277;28;739;-63
2021/10/28 16:33:34;;;;;;;;;;;16.20;89.10;;;;;;2080325;28;753;-63
2021/10/28 16:34:53;;;;;;;;;;;16.30;88.60;;;;;;2063903;28;765;-63
2021/10/28 16:36:14;;;;;;;;;;;16.30;88.20;;;;;;2073070;28;1898;-63
2021/10/28 16:37:34;;;;;;;;;;;16.40;88.60;;;;;;2080343;28;785;-62
2021/10/28 16:38:53;;;;;;;;;;;16.40;88.60;;;;;;2080485;28;1053;-62